createdAt,value
2019-03-12T00:00:52.564Z,3.27
2019-03-12T00:02:53.508Z,3.07
2019-03-12T00:04:54.332Z,3.07
2019-03-12T00:06:55.194Z,2.93
2019-03-12T00:08:56.147Z,3.00
2019-03-12T00:10:57.033Z,3.00
2019-03-12T00:12:57.866Z,2.77
2019-03-12T00:14:58.697Z,2.50
2019-03-12T00:16:59.567Z,2.80
2019-03-12T00:19:00.397Z,2.67
2019-03-12T00:21:01.513Z,2.87
2019-03-12T00:23:02.361Z,3.13
2019-03-12T00:25:03.180Z,2.70
2019-03-12T00:27:04.362Z,3.03
2019-03-12T00:29:05.460Z,2.67
2019-03-12T00:31:06.317Z,2.70
2019-03-12T00:33:07.477Z,2.93
2019-03-12T00:35:08.332Z,2.73
2019-03-12T00:37:09.408Z,2.67
2019-03-12T00:39:10.242Z,2.80
2019-03-12T00:41:11.436Z,2.63
2019-03-12T00:43:12.267Z,2.97
2019-03-12T00:45:13.413Z,2.83
2019-03-12T00:47:14.262Z,2.90
2019-03-12T00:49:15.107Z,2.90
2019-03-12T00:51:16.029Z,2.83
2019-03-12T00:53:16.884Z,2.50
2019-03-12T00:55:17.737Z,2.77
2019-03-12T00:57:18.577Z,2.50
2019-03-12T00:59:19.404Z,2.97
2019-03-12T01:01:20.264Z,2.70
2019-03-12T01:03:21.105Z,2.70
2019-03-12T01:05:21.940Z,3.00
2019-03-12T01:07:23.071Z,3.30
2019-03-12T01:09:24.025Z,2.93
2019-03-12T01:11:24.861Z,2.70
2019-03-12T01:13:25.713Z,2.83
2019-03-12T01:15:26.532Z,3.03
2019-03-12T01:17:27.368Z,2.90
2019-03-12T01:19:28.216Z,2.80
2019-03-12T01:21:29.048Z,2.73
2019-03-12T01:23:29.868Z,3.03
2019-03-12T01:25:30.725Z,2.93
2019-03-12T01:27:31.559Z,2.93
2019-03-12T01:29:32.408Z,3.00
2019-03-12T01:31:33.257Z,2.80
2019-03-12T01:33:34.088Z,3.00
2019-03-12T01:35:34.945Z,2.73
2019-03-12T01:37:35.781Z,3.10
2019-03-12T01:39:36.605Z,2.90
2019-03-12T01:41:37.461Z,3.20
2019-03-12T01:43:38.288Z,2.80
2019-03-12T01:45:39.157Z,3.00
2019-03-12T01:47:39.972Z,3.10
2019-03-12T01:49:41.176Z,3.10
2019-03-12T01:51:42.336Z,2.97
2019-03-12T01:53:43.195Z,2.80
2019-03-12T01:55:44.293Z,2.80
2019-03-12T01:57:45.133Z,2.90
2019-03-12T01:59:46.000Z,3.00
2019-03-12T02:01:46.854Z,2.77
2019-03-12T02:03:47.684Z,3.00
2019-03-12T02:05:48.520Z,3.33
2019-03-12T02:07:49.719Z,2.83
2019-03-12T02:09:50.837Z,3.13
2019-03-12T02:11:51.996Z,3.03
2019-03-12T02:13:52.831Z,3.00
2019-03-12T02:15:53.954Z,2.90
2019-03-12T02:17:54.796Z,3.07
2019-03-12T02:19:55.649Z,2.97
2019-03-12T02:21:56.485Z,3.40
2019-03-12T02:23:57.310Z,3.00
2019-03-12T02:25:58.182Z,3.20
2019-03-12T02:27:59.368Z,2.83
2019-03-12T02:30:00.322Z,3.03
2019-03-12T02:32:01.861Z,2.97
2019-03-12T02:34:02.703Z,3.53
2019-03-12T02:36:03.529Z,2.93
2019-03-12T02:38:04.396Z,3.10
2019-03-12T02:40:05.217Z,3.07
2019-03-12T02:42:06.333Z,3.20
2019-03-12T02:44:07.168Z,2.93
2019-03-12T02:46:08.311Z,3.27
2019-03-12T02:48:09.146Z,3.40
2019-03-12T02:50:09.988Z,3.17
2019-03-12T02:52:10.916Z,3.67
2019-03-12T02:54:11.765Z,3.43
2019-03-12T02:56:12.909Z,3.00
2019-03-12T02:58:13.751Z,3.17
2019-03-12T03:00:17.461Z,3.13
2019-03-12T03:02:18.569Z,2.67
2019-03-12T03:04:19.683Z,3.40
2019-03-12T03:06:30.504Z,3.30
2019-03-12T03:08:32.521Z,3.20
2019-03-12T03:10:33.558Z,3.30
2019-03-12T03:12:34.389Z,3.37
2019-03-12T03:14:35.234Z,2.87
2019-03-12T03:16:36.099Z,3.33
2019-03-12T03:18:36.930Z,3.10
2019-03-12T03:20:38.021Z,3.47
2019-03-12T03:22:38.865Z,3.53
2019-03-12T03:24:39.690Z,3.20
2019-03-12T03:26:40.541Z,3.33
2019-03-12T03:28:41.374Z,3.20
2019-03-12T03:30:42.234Z,3.73
2019-03-12T03:32:43.087Z,3.57
2019-03-12T03:34:43.997Z,3.07
2019-03-12T03:36:44.846Z,3.30
2019-03-12T03:38:45.688Z,3.60
2019-03-12T03:40:46.530Z,3.40
2019-03-12T03:42:47.372Z,3.20
2019-03-12T03:44:48.204Z,3.57
2019-03-12T03:46:49.053Z,3.23
2019-03-12T03:48:50.226Z,3.23
2019-03-12T03:50:51.069Z,3.10
2019-03-12T03:52:51.916Z,3.20
2019-03-12T03:54:52.758Z,3.50
2019-03-12T03:56:53.893Z,3.23
2019-03-12T03:58:54.749Z,3.60
2019-03-12T04:00:55.917Z,3.20
2019-03-12T04:02:56.771Z,3.80
2019-03-12T04:04:57.614Z,3.70
2019-03-12T04:06:58.738Z,3.53
2019-03-12T04:08:59.579Z,3.20
2019-03-12T04:11:00.412Z,4.00
2019-03-12T04:13:01.263Z,3.23
2019-03-12T04:15:02.109Z,3.30
2019-03-12T04:17:03.211Z,3.63
2019-03-12T04:19:04.048Z,3.10
2019-03-12T04:21:04.896Z,3.10
2019-03-12T04:23:05.713Z,3.50
2019-03-12T04:25:06.573Z,3.33
2019-03-12T04:27:07.417Z,3.30
2019-03-12T04:29:08.239Z,3.50
2019-03-12T04:31:09.088Z,3.10
2019-03-12T04:33:09.968Z,3.47
2019-03-12T04:35:10.859Z,3.30
2019-03-12T04:37:12.049Z,3.10
2019-03-12T04:39:12.895Z,3.20
2019-03-12T04:41:13.725Z,3.33
2019-03-12T04:43:14.571Z,3.40
2019-03-12T04:45:15.426Z,3.10
2019-03-12T04:47:16.241Z,3.17
2019-03-12T04:49:17.106Z,3.00
2019-03-12T04:51:17.919Z,3.07
2019-03-12T04:53:19.122Z,3.37
2019-03-12T04:55:19.948Z,2.90
2019-03-12T04:57:20.800Z,3.50
2019-03-12T04:59:21.636Z,2.90
2019-03-12T05:01:22.465Z,3.10
2019-03-12T05:03:23.315Z,3.20
2019-03-12T05:05:24.168Z,3.47
2019-03-12T05:07:25.000Z,3.60
2019-03-12T05:09:25.849Z,3.30
2019-03-12T05:11:26.709Z,3.30
2019-03-12T05:13:27.530Z,3.10
2019-03-12T05:15:28.385Z,3.50
2019-03-12T05:17:29.244Z,3.60
2019-03-12T05:19:30.087Z,3.30
2019-03-12T05:21:31.024Z,4.30
2019-03-12T05:23:31.986Z,3.20
2019-03-12T05:25:32.825Z,3.37
2019-03-12T05:27:33.668Z,3.50
2019-03-12T05:29:34.521Z,3.10
2019-03-12T05:31:35.357Z,3.20
2019-03-12T05:33:36.196Z,3.00
2019-03-12T05:35:37.028Z,3.30
2019-03-12T05:37:37.877Z,3.60
2019-03-12T05:39:38.730Z,3.63
2019-03-12T05:41:39.573Z,3.83
2019-03-12T05:43:40.413Z,3.40
2019-03-12T05:45:41.282Z,3.57
2019-03-12T05:47:42.126Z,3.40
2019-03-12T05:49:42.997Z,3.30
2019-03-12T05:51:43.836Z,3.10
2019-03-12T05:53:44.675Z,3.10
2019-03-12T05:55:45.545Z,3.17
2019-03-12T05:57:46.458Z,3.37
2019-03-12T05:59:47.620Z,3.53
2019-03-12T06:01:48.581Z,3.37
2019-03-12T06:03:49.705Z,3.13
2019-03-12T06:05:50.549Z,3.40
2019-03-12T06:07:51.417Z,3.13
2019-03-12T06:09:52.241Z,3.10
2019-03-12T06:11:53.085Z,3.10
2019-03-12T06:13:53.916Z,3.10
2019-03-12T06:15:54.772Z,3.50
2019-03-12T06:17:55.625Z,3.33
2019-03-12T06:19:56.471Z,3.27
2019-03-12T06:21:57.291Z,3.23
2019-03-12T06:23:58.141Z,3.00
2019-03-12T06:25:58.978Z,3.43
2019-03-12T06:27:59.821Z,3.77
2019-03-12T06:30:00.720Z,3.30
2019-03-12T06:32:23.758Z,3.20
2019-03-12T06:34:44.245Z,3.00
2019-03-12T06:36:49.192Z,3.27
2019-03-12T06:39:02.924Z,3.30
2019-03-12T06:41:16.954Z,3.20
2019-03-12T06:43:33.359Z,3.20
2019-03-12T06:45:57.186Z,3.40
2019-03-12T06:48:13.721Z,3.03
2019-03-12T06:50:27.277Z,4.00
2019-03-12T06:52:50.580Z,4.03
2019-03-12T06:55:10.497Z,4.50
2019-03-12T06:57:33.740Z,4.00
2019-03-12T06:59:42.801Z,4.10
2019-03-12T07:02:02.297Z,3.30
2019-03-12T07:04:18.769Z,3.70
2019-03-12T07:06:48.173Z,3.57
2019-03-12T07:09:03.694Z,3.37
2019-03-12T07:11:13.112Z,3.50
2019-03-12T07:13:28.873Z,3.43
2019-03-12T07:15:52.580Z,3.37
2019-03-12T07:18:07.852Z,3.40
2019-03-12T07:20:29.320Z,3.20
2019-03-12T07:22:48.625Z,3.20
2019-03-12T07:24:59.540Z,3.30
2019-03-12T07:27:22.794Z,2.83
2019-03-12T07:29:40.050Z,3.00
2019-03-12T07:32:05.329Z,4.00
2019-03-12T07:34:36.522Z,3.03
2019-03-12T07:36:57.533Z,3.50
2019-03-12T07:39:18.015Z,3.13
2019-03-12T07:41:38.508Z,2.90
2019-03-12T07:43:51.587Z,3.10
2019-03-12T07:45:59.517Z,2.80
2019-03-12T07:48:22.769Z,3.10
2019-03-12T07:50:46.172Z,3.30
2019-03-12T07:53:05.225Z,3.60
2019-03-12T07:55:17.772Z,2.93
2019-03-12T07:57:48.328Z,2.90
2019-03-12T08:00:00.570Z,3.10
2019-03-12T08:02:20.913Z,3.17
2019-03-12T08:04:35.653Z,3.00
2019-03-12T08:06:51.560Z,3.03
2019-03-12T08:09:10.894Z,2.97
2019-03-12T08:11:17.905Z,2.90
2019-03-12T08:13:28.153Z,3.43
2019-03-12T08:15:39.620Z,3.10
2019-03-12T08:18:09.145Z,3.00
2019-03-12T08:20:14.892Z,3.20
2019-03-12T08:22:26.148Z,3.13
2019-03-12T08:24:43.201Z,3.30
2019-03-12T08:27:06.714Z,2.97
2019-03-12T08:29:33.132Z,3.10
2019-03-12T08:31:52.410Z,2.97
2019-03-12T08:34:04.628Z,3.00
2019-03-12T08:36:34.356Z,3.00
2019-03-12T08:38:57.773Z,3.07
2019-03-12T08:41:09.824Z,3.40
2019-03-12T08:43:16.710Z,3.30
2019-03-12T08:45:49.892Z,4.00
2019-03-12T08:47:57.881Z,5.97
2019-03-12T08:50:09.785Z,3.93
2019-03-12T08:52:19.708Z,3.20
2019-03-12T08:54:32.029Z,2.83
2019-03-12T08:56:51.273Z,3.10
2019-03-12T08:59:09.344Z,3.33
2019-03-12T09:01:29.820Z,3.20
2019-03-12T09:03:42.021Z,4.00
2019-03-12T09:05:52.773Z,7.13
2019-03-12T09:08:04.267Z,4.00
2019-03-12T09:10:23.637Z,5.60
2019-03-12T09:12:50.761Z,3.30
2019-03-12T09:15:10.176Z,4.00
2019-03-12T09:17:20.145Z,3.97
2019-03-12T09:19:41.809Z,2.70
2019-03-12T09:22:17.400Z,3.03
2019-03-12T09:24:40.665Z,4.10
2019-03-12T09:26:56.399Z,5.80
2019-03-12T09:29:29.202Z,4.97
2019-03-12T09:31:40.867Z,3.57
2019-03-12T09:33:50.520Z,2.80
2019-03-12T09:36:07.622Z,3.07
2019-03-12T09:38:13.377Z,2.27
2019-03-12T09:40:30.405Z,2.70
2019-03-12T09:42:56.960Z,2.90
2019-03-12T09:45:09.787Z,2.40
2019-03-12T09:47:18.553Z,2.13
2019-03-12T09:49:36.901Z,2.40
2019-03-12T09:51:53.328Z,2.20
2019-03-12T09:54:04.772Z,2.77
2019-03-12T09:56:12.269Z,2.00
2019-03-12T09:58:26.532Z,2.00
2019-03-12T10:00:50.019Z,2.13
2019-03-12T10:02:56.782Z,1.83
2019-03-12T10:05:06.795Z,2.10
2019-03-12T10:07:26.396Z,1.70
2019-03-12T10:09:45.928Z,1.90
2019-03-12T10:11:54.164Z,2.40
2019-03-12T10:14:13.844Z,2.00
2019-03-12T10:16:38.104Z,2.30
2019-03-12T10:18:49.733Z,2.03
2019-03-12T10:21:02.110Z,2.00
2019-03-12T10:23:21.397Z,1.80
2019-03-12T10:25:40.836Z,1.97
2019-03-12T10:28:04.384Z,1.77
2019-03-12T10:30:22.268Z,2.00
2019-03-12T10:32:30.329Z,2.17
2019-03-12T10:34:44.895Z,1.77
2019-03-12T10:36:52.501Z,1.87
2019-03-12T10:39:00.993Z,1.80
2019-03-12T10:41:22.225Z,1.80
2019-03-12T10:43:43.930Z,1.70
2019-03-12T10:46:10.517Z,1.53
2019-03-12T10:48:11.397Z,1.70
2019-03-12T10:50:12.576Z,1.90
2019-03-12T10:52:13.429Z,1.80
2019-03-12T10:54:14.289Z,1.70
2019-03-12T10:56:15.106Z,2.00
2019-03-12T10:58:15.930Z,2.50
2019-03-12T11:00:16.804Z,1.60
2019-03-12T11:02:17.631Z,1.77
2019-03-12T11:04:18.453Z,1.93
2019-03-12T11:06:19.300Z,1.80
2019-03-12T11:08:20.137Z,1.67
2019-03-12T11:10:20.992Z,1.73
2019-03-12T11:12:21.840Z,1.73
2019-03-12T11:14:22.693Z,1.70
2019-03-12T11:16:23.520Z,1.70
2019-03-12T11:18:24.349Z,1.80
2019-03-12T11:20:25.502Z,1.30
2019-03-12T11:22:26.357Z,1.70
2019-03-12T11:24:27.189Z,1.70
2019-03-12T11:26:28.029Z,2.00
2019-03-12T11:28:28.880Z,1.60
2019-03-12T11:30:29.733Z,2.30
2019-03-12T11:32:30.576Z,1.80
2019-03-12T11:34:31.413Z,1.83
2019-03-12T11:36:32.263Z,2.00
2019-03-12T11:38:33.815Z,2.07
2019-03-12T11:40:34.840Z,2.20
2019-03-12T11:42:35.742Z,1.80
2019-03-12T11:44:36.753Z,2.10
2019-03-12T11:46:44.018Z,1.80
2019-03-12T11:48:40.416Z,1.97
2019-03-12T11:50:41.253Z,2.07
2019-03-12T11:52:52.421Z,2.17
2019-03-12T11:54:44.859Z,1.90
2019-03-12T11:56:45.890Z,1.83
2019-03-12T11:58:46.977Z,1.80
2019-03-12T12:00:59.663Z,2.20
2019-03-12T12:03:00.886Z,2.23
2019-03-12T12:05:01.917Z,2.57
2019-03-12T12:07:02.789Z,2.03
2019-03-12T12:09:04.290Z,2.00
2019-03-12T12:11:05.132Z,2.03
2019-03-12T12:13:05.972Z,2.10
2019-03-12T12:15:06.808Z,2.10
2019-03-12T12:17:07.674Z,1.80
2019-03-12T12:19:08.788Z,2.30
2019-03-12T12:21:09.657Z,2.40
2019-03-12T12:23:10.490Z,2.00
2019-03-12T12:25:11.316Z,1.93
2019-03-12T12:27:12.190Z,2.00
2019-03-12T12:29:13.361Z,2.30
2019-03-12T12:31:14.206Z,2.23
2019-03-12T12:33:15.043Z,1.90
2019-03-12T12:35:15.876Z,2.03
2019-03-12T12:37:17.022Z,2.00
2019-03-12T12:39:17.848Z,2.20
2019-03-12T12:41:19.001Z,2.40
2019-03-12T12:43:19.824Z,1.90
2019-03-12T12:45:20.655Z,2.30
2019-03-12T12:47:21.736Z,2.50
2019-03-12T12:49:22.587Z,2.27
2019-03-12T12:51:23.455Z,1.97
2019-03-12T12:53:24.290Z,2.30
2019-03-12T12:55:25.116Z,2.20
2019-03-12T12:57:25.971Z,2.40
2019-03-12T12:59:26.794Z,2.23
2019-03-12T13:01:27.622Z,2.30
2019-03-12T13:03:28.779Z,2.30
2019-03-12T13:05:29.616Z,2.10
2019-03-12T13:07:30.461Z,2.43
2019-03-12T13:09:31.293Z,2.47
2019-03-12T13:11:32.141Z,2.10
2019-03-12T13:13:32.984Z,2.30
2019-03-12T13:15:33.837Z,2.30
2019-03-12T13:17:34.657Z,2.10
2019-03-12T13:19:35.562Z,2.40
2019-03-12T13:21:36.461Z,2.50
2019-03-12T13:23:37.314Z,2.37
2019-03-12T13:25:38.449Z,2.60
2019-03-12T13:27:42.424Z,2.57
2019-03-12T13:29:42.057Z,2.63
2019-03-12T13:31:43.000Z,2.50
2019-03-12T13:33:43.833Z,2.37
2019-03-12T13:35:44.978Z,2.50
2019-03-12T13:37:46.112Z,2.50
2019-03-12T13:39:46.953Z,2.43
2019-03-12T13:41:47.819Z,2.70
2019-03-12T13:43:48.749Z,2.50
2019-03-12T13:45:49.617Z,2.77
2019-03-12T13:47:50.546Z,2.40
2019-03-12T13:49:51.770Z,2.47
2019-03-12T13:51:52.905Z,2.53
2019-03-12T13:53:53.748Z,2.67
2019-03-12T13:55:54.626Z,2.30
2019-03-12T13:57:56.660Z,2.00
2019-03-12T13:59:57.493Z,2.30
2019-03-12T14:01:58.661Z,2.30
2019-03-12T14:04:10.112Z,2.10
2019-03-12T14:06:02.275Z,2.33
2019-03-12T14:08:03.103Z,2.23
2019-03-12T14:10:04.244Z,2.20
2019-03-12T14:12:05.105Z,2.37
2019-03-12T14:14:05.968Z,2.40
2019-03-12T14:16:07.101Z,2.30
2019-03-12T14:18:08.014Z,2.60
2019-03-12T14:20:09.153Z,2.77
2019-03-12T14:22:10.525Z,2.40
2019-03-12T14:24:11.384Z,2.00
2019-03-12T14:26:12.216Z,2.50
2019-03-12T14:28:13.053Z,2.60
2019-03-12T14:30:14.006Z,2.20
2019-03-12T14:32:14.839Z,2.23
2019-03-12T14:34:15.721Z,2.33
2019-03-12T14:36:16.567Z,2.27
2019-03-12T14:38:17.404Z,2.60
2019-03-12T14:40:18.588Z,2.40
2019-03-12T14:42:19.435Z,2.27
2019-03-12T14:44:20.274Z,2.40
2019-03-12T14:46:21.409Z,2.90
2019-03-12T14:48:22.261Z,2.80
2019-03-12T14:50:23.089Z,2.43
2019-03-12T14:52:23.921Z,2.60
2019-03-12T14:54:24.770Z,2.57
2019-03-12T14:56:25.692Z,2.63
2019-03-12T14:58:26.520Z,2.80
2019-03-12T15:00:27.360Z,2.90
2019-03-12T15:02:28.201Z,2.60
2019-03-12T15:04:29.312Z,2.77
2019-03-12T15:06:30.149Z,2.60
2019-03-12T15:08:30.977Z,2.73
2019-03-12T15:10:31.824Z,2.93
2019-03-12T15:12:32.656Z,2.60
2019-03-12T15:14:33.520Z,2.60
2019-03-12T15:16:34.369Z,2.90
2019-03-12T15:18:35.227Z,2.83
2019-03-12T15:20:36.061Z,2.53
2019-03-12T15:22:36.909Z,2.90
2019-03-12T15:24:37.737Z,2.60
2019-03-12T15:26:38.584Z,2.77
2019-03-12T15:28:39.413Z,2.60
2019-03-12T15:30:40.244Z,2.70
2019-03-12T15:32:41.092Z,2.40
2019-03-12T15:34:41.916Z,2.50
2019-03-12T15:36:45.399Z,2.57
2019-03-12T15:38:45.504Z,2.73
2019-03-12T15:40:46.340Z,2.53
2019-03-12T15:42:47.197Z,2.63
2019-03-12T15:44:48.041Z,2.70
2019-03-12T15:46:48.900Z,2.50
2019-03-12T15:48:49.733Z,2.30
2019-03-12T15:50:50.580Z,2.40
2019-03-12T15:52:51.416Z,2.50
2019-03-12T15:54:52.577Z,2.50
2019-03-12T15:56:53.448Z,2.50
2019-03-12T15:58:54.277Z,2.50
2019-03-12T16:00:55.100Z,2.60
2019-03-12T16:02:55.944Z,2.50
2019-03-12T16:04:56.801Z,2.30
2019-03-12T16:07:01.658Z,2.30
2019-03-12T16:09:00.417Z,2.40
2019-03-12T16:11:01.240Z,2.70
2019-03-12T16:13:02.065Z,2.50
2019-03-12T16:15:03.020Z,2.53
2019-03-12T16:17:03.888Z,2.40
2019-03-12T16:19:04.729Z,2.53
2019-03-12T16:21:05.625Z,2.50
2019-03-12T16:23:06.512Z,2.50
2019-03-12T16:25:07.347Z,2.70
2019-03-12T16:27:08.485Z,2.60
2019-03-12T16:29:09.344Z,2.50
2019-03-12T16:31:10.296Z,2.50
2019-03-12T16:33:11.134Z,2.40
2019-03-12T16:35:11.994Z,2.50
2019-03-12T16:37:12.953Z,2.80
2019-03-12T16:39:14.081Z,2.73
2019-03-12T16:41:14.933Z,2.73
2019-03-12T16:43:15.771Z,2.53
2019-03-12T16:45:16.615Z,2.30
2019-03-12T16:47:17.460Z,2.50
2019-03-12T16:49:18.292Z,2.60
2019-03-12T16:51:19.138Z,2.57
2019-03-12T16:53:19.961Z,2.70
2019-03-12T16:55:20.792Z,2.50
2019-03-12T16:57:21.641Z,2.70
2019-03-12T16:59:22.836Z,2.40
2019-03-12T17:01:23.681Z,2.50
2019-03-12T17:03:24.537Z,2.30
2019-03-12T17:05:26.483Z,2.80
2019-03-12T17:07:27.481Z,2.77
2019-03-12T17:09:28.328Z,2.47
2019-03-12T17:11:29.153Z,2.70
2019-03-12T17:13:30.002Z,2.37
2019-03-12T17:15:30.829Z,2.50
2019-03-12T17:17:31.706Z,2.40
2019-03-12T17:19:32.537Z,2.50
2019-03-12T17:21:33.378Z,2.33
2019-03-12T17:23:34.219Z,2.80
2019-03-12T17:25:35.072Z,2.60
2019-03-12T17:27:35.940Z,2.50
2019-03-12T17:29:36.934Z,2.67
2019-03-12T17:31:37.770Z,2.50
2019-03-12T17:33:38.613Z,3.00
2019-03-12T17:35:39.476Z,2.43
2019-03-12T17:37:40.597Z,2.60
2019-03-12T17:39:41.429Z,3.00
2019-03-12T17:41:42.684Z,2.80
2019-03-12T17:43:43.537Z,2.70
2019-03-12T17:45:44.386Z,2.50
2019-03-12T17:47:45.224Z,2.60
2019-03-12T17:49:46.056Z,2.70
2019-03-12T17:51:46.897Z,2.50
2019-03-12T17:53:47.754Z,2.67
2019-03-12T17:55:48.578Z,2.80
2019-03-12T17:57:50.907Z,2.50
2019-03-12T17:59:52.163Z,2.60
2019-03-12T18:01:53.276Z,2.20
2019-03-12T18:03:54.444Z,2.50
2019-03-12T18:05:55.489Z,2.70
2019-03-12T18:07:56.319Z,2.53
2019-03-12T18:09:57.148Z,2.63
2019-03-12T18:11:57.996Z,2.30
2019-03-12T18:13:58.957Z,2.63
2019-03-12T18:16:00.120Z,2.60
2019-03-12T18:18:01.244Z,2.60
2019-03-12T18:20:02.102Z,2.40
2019-03-12T18:22:03.237Z,2.50
2019-03-12T18:24:04.088Z,2.50
2019-03-12T18:26:04.950Z,2.30
2019-03-12T18:28:05.799Z,2.43
2019-03-12T18:30:06.624Z,2.80
2019-03-12T18:32:07.488Z,2.37
2019-03-12T18:34:08.322Z,2.60
2019-03-12T18:36:09.169Z,2.43
2019-03-12T18:38:10.253Z,2.58
2019-03-12T18:40:11.169Z,2.00
2019-03-12T18:42:11.992Z,2.60
2019-03-12T18:44:12.841Z,2.20
2019-03-12T18:46:13.681Z,1.97
2019-03-12T18:48:14.557Z,2.45
2019-03-12T18:50:15.373Z,2.60
2019-03-12T18:52:16.229Z,2.73
2019-03-12T18:54:17.369Z,2.40
2019-03-12T18:56:18.231Z,2.80
2019-03-12T18:58:19.078Z,2.73
2019-03-12T19:00:19.928Z,2.70
2019-03-12T19:02:20.785Z,2.70
2019-03-12T19:04:21.660Z,2.53
2019-03-12T19:06:22.504Z,2.47
2019-03-12T19:08:23.333Z,2.70
2019-03-12T19:10:24.187Z,2.50
2019-03-12T19:12:25.012Z,3.00
2019-03-12T19:14:25.863Z,3.67
2019-03-12T19:16:26.722Z,5.93
2019-03-12T19:18:27.561Z,4.20
2019-03-12T19:20:28.398Z,2.97
2019-03-12T19:22:29.251Z,2.87
2019-03-12T19:24:30.087Z,2.57
2019-03-12T19:26:30.959Z,3.10
2019-03-12T19:28:31.796Z,2.77
2019-03-12T19:30:32.769Z,2.80
2019-03-12T19:32:45.264Z,2.90
2019-03-12T19:34:46.100Z,3.10
2019-03-12T19:36:46.944Z,2.80
2019-03-12T20:22:53.916Z,3.80
2019-03-12T20:24:55.092Z,4.00
2019-03-12T20:26:55.938Z,2.80
2019-03-12T20:28:56.788Z,3.53
2019-03-12T20:30:57.640Z,4.40
2019-03-12T20:32:58.532Z,4.50
2019-03-12T20:34:59.356Z,4.13
2019-03-12T20:37:00.213Z,3.10
2019-03-12T20:39:01.296Z,3.37
2019-03-12T20:41:04.987Z,4.60
2019-03-12T20:43:04.907Z,2.60
2019-03-12T20:45:05.737Z,3.60
2019-03-12T20:47:06.571Z,4.87
2019-03-12T20:49:11.394Z,3.63
2019-03-12T20:51:12.975Z,2.80
2019-03-12T20:53:12.949Z,2.70
2019-03-12T20:55:13.776Z,2.47
2019-03-12T20:57:14.603Z,2.90
2019-03-12T20:59:15.456Z,2.70
2019-03-12T21:01:16.692Z,2.70
2019-03-12T21:03:17.596Z,2.80
2019-03-12T21:05:18.537Z,2.63
2019-03-12T21:07:19.368Z,3.10
2019-03-12T21:09:20.242Z,3.43
2019-03-12T21:11:21.153Z,3.50
2019-03-12T21:13:22.062Z,4.10
2019-03-12T21:15:23.021Z,4.40
2019-03-12T21:17:24.049Z,4.40
2019-03-12T21:19:24.912Z,4.80
2019-03-12T21:21:25.773Z,3.57
2019-03-12T21:23:26.612Z,3.43
2019-03-12T21:25:27.505Z,3.30
2019-03-12T21:27:28.341Z,4.00
2019-03-12T21:29:29.207Z,3.73
2019-03-12T21:31:30.388Z,4.57
2019-03-12T21:33:31.248Z,4.37
2019-03-12T21:35:32.104Z,4.00
2019-03-12T21:37:33.024Z,3.70
2019-03-12T21:39:33.867Z,4.00
2019-03-12T21:41:34.719Z,3.97
2019-03-12T21:43:35.588Z,4.43
2019-03-12T21:45:36.601Z,4.47
2019-03-12T21:47:37.554Z,4.83
2019-03-12T21:49:38.430Z,4.40
2019-03-12T21:51:39.597Z,4.63
2019-03-12T21:53:40.462Z,5.13
2019-03-12T21:55:41.300Z,4.23
2019-03-12T21:57:42.151Z,4.00
2019-03-12T21:59:43.005Z,4.17
2019-03-12T22:01:43.859Z,4.50
2019-03-12T22:03:45.012Z,3.67
2019-03-12T22:05:45.873Z,3.97
2019-03-12T22:07:46.700Z,4.37
2019-03-12T22:09:47.568Z,4.40
2019-03-12T22:11:48.764Z,4.17
2019-03-12T22:13:49.597Z,4.30
2019-03-12T22:15:50.448Z,4.63
2019-03-12T22:17:51.375Z,4.50
2019-03-12T22:19:52.220Z,4.30
2019-03-12T22:22:18.769Z,4.60
2019-03-12T22:24:20.641Z,4.20
2019-03-12T22:26:21.494Z,4.60
2019-03-12T22:28:22.394Z,4.17
2019-03-12T22:30:24.261Z,3.80
2019-03-12T22:32:25.105Z,4.30
2019-03-12T22:34:25.955Z,3.90
2019-03-12T22:36:26.804Z,3.47
2019-03-12T22:38:27.644Z,3.50
2019-03-12T22:40:28.496Z,3.10
2019-03-12T22:42:29.606Z,3.37
2019-03-12T22:44:30.445Z,3.40
2019-03-12T22:46:31.291Z,3.60
2019-03-12T22:48:32.112Z,3.50
2019-03-12T22:50:32.959Z,3.20
2019-03-12T22:52:33.840Z,3.43
2019-03-12T22:54:34.737Z,6.40
2019-03-12T22:56:35.686Z,6.20
2019-03-12T22:58:36.609Z,7.40
2019-03-12T23:00:39.396Z,7.43
2019-03-12T23:02:40.312Z,4.70
2019-03-12T23:04:41.436Z,5.63
2019-03-12T23:06:42.293Z,5.93
2019-03-12T23:08:43.136Z,5.73
2019-03-12T23:10:43.988Z,5.47
2019-03-12T23:12:44.831Z,6.17
2019-03-12T23:14:46.036Z,7.57
2019-03-12T23:16:46.968Z,7.67
2019-03-12T23:18:47.800Z,6.93
2019-03-12T23:20:48.661Z,7.37
2019-03-12T23:22:52.295Z,6.27
2019-03-12T23:24:52.620Z,5.60
2019-03-12T23:26:53.448Z,6.00
2019-03-12T23:28:54.300Z,5.03
2019-03-12T23:30:55.460Z,4.80
2019-03-12T23:32:56.572Z,4.77
2019-03-12T23:34:57.408Z,4.70
2019-03-12T23:36:58.265Z,4.17
2019-03-12T23:38:59.118Z,4.00
2019-03-12T23:41:00.265Z,4.00
2019-03-12T23:43:01.120Z,3.43
2019-03-12T23:45:01.951Z,3.30
2019-03-12T23:47:03.149Z,3.50
2019-03-12T23:49:04.005Z,3.40
2019-03-12T23:51:04.885Z,3.67
2019-03-12T23:53:06.040Z,3.70
2019-03-12T23:55:07.396Z,3.73
2019-03-12T23:57:08.254Z,3.97
2019-03-12T23:59:09.108Z,4.20
